Time;durP1;ratioP1;P1;durP2;ratioP2;P2;SDS_P1;SDS_P2;PMS_P1;PMS_P2;Temp;Humidity;BMP_temperature;BMP_pressure;BME280_temperature;BME280_humidity;BME280_pressure;Samples;Min_cycle;Max_cycle;Signal;HPM_P1;HPM_P2
2023/07/30 00:02:16;;;;;;;3.30;3.00;;;21.50;74.80;;;;;;4955882;28;20023;-79
2023/07/30 00:04:43;;;;;;;3.30;2.90;;;21.50;74.90;;;;;;4973648;28;20031;-80
2023/07/30 00:07:08;;;;;;;3.10;2.80;;;21.50;74.90;;;;;;4972882;28;20035;-81
2023/07/30 00:09:34;;;;;;;3.50;2.90;;;21.50;74.90;;;;;;4972367;28;20038;-80
2023/07/30 00:12:01;;;;;;;3.72;2.88;;;21.50;75.00;;;;;;4972232;28;20104;-79
2023/07/30 00:14:27;;;;;;;3.13;2.83;;;21.50;75.20;;;;;;4973549;28;20051;-80
2023/07/30 00:16:53;;;;;;;3.55;2.80;;;21.50;75.20;;;;;;4973645;28;20121;-80
2023/07/30 00:19:19;;;;;;;4.65;3.03;;;21.50;75.10;;;;;;4972367;28;20037;-80
2023/07/30 00:21:46;;;;;;;3.95;3.03;;;21.50;75.30;;;;;;4972139;28;20539;-80
2023/07/30 00:24:13;;;;;;;3.30;3.00;;;21.50;75.20;;;;;;4968858;28;20059;-79
2023/07/30 00:26:38;;;;;;;3.03;2.72;;;21.40;75.10;;;;;;4954536;29;20575;-79
2023/07/30 00:29:04;;;;;;;3.28;2.97;;;21.40;75.10;;;;;;4954024;29;20060;-80
2023/07/30 00:31:30;;;;;;;3.30;3.00;;;21.40;75.10;;;;;;4952968;29;20499;-80
2023/07/30 00:33:55;;;;;;;4.75;3.10;;;21.50;75.10;;;;;;4953062;29;20020;-80
2023/07/30 00:36:21;;;;;;;2.75;2.55;;;21.40;75.00;;;;;;4953218;29;20062;-80
2023/07/30 00:38:47;;;;;;;3.13;2.90;;;21.40;75.10;;;;;;4955633;28;20483;-79
2023/07/30 00:41:13;;;;;;;3.22;2.88;;;21.40;75.20;;;;;;4968997;28;20027;-80
2023/07/30 00:43:38;;;;;;;3.33;3.03;;;21.40;75.10;;;;;;4968710;28;20030;-79
2023/07/30 00:46:04;;;;;;;3.28;2.85;;;21.40;75.20;;;;;;4968781;28;20065;-80
2023/07/30 00:48:30;;;;;;;3.28;2.97;;;21.40;75.20;;;;;;4968828;28;20046;-81
2023/07/30 00:50:56;;;;;;;4.65;3.05;;;21.40;75.20;;;;;;4953949;28;20028;-80
2023/07/30 00:53:25;;;;;;;3.60;3.20;;;21.30;75.20;;;;;;4952921;28;20034;-79
2023/07/30 00:55:51;;;;;;;3.22;2.92;;;21.30;75.20;;;;;;4954143;28;20028;-79
2023/07/30 00:58:18;;;;;;;3.17;2.88;;;21.30;75.20;;;;;;4968387;28;20031;-80
2023/07/30 01:00:44;;;;;;;3.20;2.90;;;21.30;75.20;;;;;;4968666;28;20038;-79
2023/07/30 01:03:10;;;;;;;3.10;2.80;;;21.30;75.20;;;;;;4953948;28;20035;-81
2023/07/30 01:05:36;;;;;;;3.58;3.28;;;21.30;75.30;;;;;;4959962;28;20019;-79
2023/07/30 01:08:02;;;;;;;2.75;2.55;;;21.30;75.30;;;;;;4973035;28;20447;-80
2023/07/30 01:10:30;;;;;;;3.72;3.40;;;21.30;75.50;;;;;;4973081;28;20078;-80
2023/07/30 01:12:56;;;;;;;4.38;3.15;;;21.30;75.50;;;;;;4988038;28;20531;-80
2023/07/30 01:15:22;;;;;;;3.42;3.13;;;21.30;75.60;;;;;;4975888;28;20456;-81
2023/07/30 01:17:48;;;;;;;3.20;2.85;;;21.30;75.70;;;;;;4991431;28;20062;-80
2023/07/30 01:20:14;;;;;;;8.35;3.10;;;21.20;75.70;;;;;;4991388;28;20084;-80
2023/07/30 01:22:39;;;;;;;3.17;2.88;;;21.20;75.80;;;;;;4991212;28;20050;-80
2023/07/30 01:25:06;;;;;;;3.45;3.10;;;21.20;76.00;;;;;;4975171;28;20521;-80
2023/07/30 01:27:39;;;;;;;3.10;2.80;;;21.20;76.20;;;;;;4991581;28;20056;-80
2023/07/30 01:30:08;;;;;;;3.50;3.03;;;21.20;76.40;;;;;;4975106;28;20023;-79
2023/07/30 01:32:35;;;;;;;3.45;2.97;;;21.10;76.40;;;;;;4974869;28;20019;-80
2023/07/30 01:35:03;;;;;;;4.05;3.33;;;21.10;76.60;;;;;;4973354;28;20027;-81
2023/07/30 01:37:29;;;;;;;3.10;2.80;;;21.10;76.70;;;;;;4956920;28;20094;-80
2023/07/30 01:39:56;;;;;;;3.63;3.33;;;21.10;76.90;;;;;;4955938;28;20042;-79
2023/07/30 01:42:21;;;;;;;3.28;3.00;;;21.10;76.90;;;;;;4971280;28;20038;-80
2023/07/30 01:44:47;;;;;;;3.42;3.13;;;21.00;76.90;;;;;;4971696;28;20039;-79
2023/07/30 01:47:12;;;;;;;3.25;3.00;;;21.00;77.10;;;;;;4955154;28;20553;-81
2023/07/30 01:49:38;;;;;;;3.08;2.78;;;20.90;77.80;;;;;;4971447;28;20032;-80
2023/07/30 01:52:04;;;;;;;3.15;2.85;;;20.90;77.30;;;;;;4956726;28;20024;-80
2023/07/30 01:54:30;;;;;;;3.65;3.10;;;20.90;77.30;;;;;;4971435;28;20028;-79
2023/07/30 01:56:55;;;;;;;3.03;2.75;;;20.90;77.40;;;;;;4956690;28;20031;-80
2023/07/30 01:59:21;;;;;;;3.55;3.22;;;20.90;77.60;;;;;;4971433;28;20046;-79
2023/07/30 02:01:47;;;;;;;3.58;3.17;;;20.90;77.70;;;;;;4971494;28;20398;-79
2023/07/30 02:04:12;;;;;;;3.55;3.25;;;20.90;77.80;;;;;;4956702;28;20035;-80
2023/07/30 02:06:38;;;;;;;3.65;3.20;;;20.80;77.70;;;;;;4956375;28;20071;-80
2023/07/30 02:09:03;;;;;;;3.22;2.92;;;20.80;78.00;;;;;;4971127;28;20502;-80
2023/07/30 02:11:29;;;;;;;3.63;3.22;;;20.80;78.10;;;;;;4954930;28;20027;-79
2023/07/30 02:13:55;;;;;;;3.35;3.05;;;20.80;78.20;;;;;;4970832;28;20023;-80
2023/07/30 02:16:20;;;;;;;3.40;3.08;;;20.80;78.30;;;;;;4970979;28;20034;-79
2023/07/30 02:18:46;;;;;;;3.20;2.80;;;20.80;78.40;;;;;;4970921;28;20404;-80
2023/07/30 02:21:12;;;;;;;4.75;3.20;;;20.70;78.30;;;;;;4956175;28;20031;-79
2023/07/30 02:23:38;;;;;;;3.53;3.22;;;20.70;78.40;;;;;;4954770;28;20051;-79
2023/07/30 02:26:04;;;;;;;3.40;3.10;;;20.70;78.40;;;;;;4970386;28;20404;-80
2023/07/30 02:28:29;;;;;;;3.40;3.10;;;20.70;78.50;;;;;;4955975;28;20027;-80
2023/07/30 02:30:55;;;;;;;4.30;3.20;;;20.80;78.40;;;;;;4987093;28;20027;-80
2023/07/30 02:33:21;;;;;;;3.65;3.25;;;20.70;78.50;;;;;;4990116;28;20030;-81
2023/07/30 02:35:46;;;;;;;3.53;3.10;;;20.80;78.30;;;;;;4975109;28;20062;-79
2023/07/30 02:38:12;;;;;;;4.47;3.33;;;20.80;78.30;;;;;;4973752;28;20027;-79
2023/07/30 02:40:38;;;;;;;3.30;3.00;;;20.80;78.30;;;;;;4975145;28;20078;-80
2023/07/30 02:43:03;;;;;;;3.30;3.00;;;20.80;78.40;;;;;;4974823;28;20089;-81
2023/07/30 02:45:30;;;;;;;3.45;3.15;;;20.80;78.60;;;;;;4974852;28;20407;-80
2023/07/30 02:47:55;;;;;;;4.53;3.10;;;20.80;78.40;;;;;;4974856;28;20030;-80
2023/07/30 02:50:21;;;;;;;3.40;3.10;;;20.80;78.40;;;;;;4973615;28;20053;-80
2023/07/30 02:52:46;;;;;;;3.10;2.90;;;20.90;78.50;;;;;;4989941;28;20031;-80
2023/07/30 02:55:12;;;;;;;3.35;3.05;;;20.90;78.20;;;;;;4975079;28;20085;-80
2023/07/30 02:57:38;;;;;;;3.72;2.83;;;20.90;78.20;;;;;;4973441;28;20035;-81
2023/07/30 03:00:04;;;;;;;3.72;3.35;;;21.00;78.10;;;;;;4989627;28;20031;-79
2023/07/30 03:02:30;;;;;;;3.53;3.22;;;21.00;78.10;;;;;;4974711;28;20023;-80
2023/07/30 03:04:56;;;;;;;3.45;3.13;;;21.00;78.20;;;;;;4973402;28;20088;-80
2023/07/30 03:07:22;;;;;;;3.72;3.42;;;21.00;78.00;;;;;;4989643;28;20035;-80
2023/07/30 03:09:48;;;;;;;4.35;3.53;;;21.10;77.80;;;;;;4989489;28;20125;-80
2023/07/30 03:12:13;;;;;;;4.85;3.40;;;21.10;77.70;;;;;;4973111;28;20118;-80
2023/07/30 03:14:39;;;;;;;3.92;3.22;;;21.20;77.80;;;;;;4972986;28;20030;-80
2023/07/30 03:17:05;;;;;;;3.38;3.08;;;21.20;77.90;;;;;;4973438;28;20027;-79
2023/07/30 03:19:31;;;;;;;4.18;3.10;;;21.20;77.90;;;;;;4973301;28;20034;-80
2023/07/30 03:21:57;;;;;;;3.80;3.40;;;21.30;78.30;;;;;;4989195;28;20039;-80
2023/07/30 03:24:22;;;;;;;3.70;3.00;;;21.40;78.50;;;;;;4989013;28;20057;-80
2023/07/30 03:26:48;;;;;;;4.38;3.45;;;21.40;78.40;;;;;;4958291;28;20086;-80
2023/07/30 03:29:14;;;;;;;3.92;3.38;;;21.50;78.30;;;;;;4955006;28;20034;-80
2023/07/30 03:31:40;;;;;;;3.92;3.53;;;21.60;78.20;;;;;;4955070;28;20019;-80
2023/07/30 03:34:06;;;;;;;4.70;4.00;;;21.70;78.10;;;;;;4954902;28;20083;-80
2023/07/30 03:36:32;;;;;;;4.35;3.70;;;21.80;77.90;;;;;;4968728;28;20041;-79
2023/07/30 03:38:57;;;;;;;4.05;3.65;;;21.90;78.10;;;;;;4954535;28;20031;-80
2023/07/30 03:41:23;;;;;;;4.72;4.00;;;22.10;78.00;;;;;;4954716;28;20031;-80
2023/07/30 03:43:49;;;;;;;4.43;3.78;;;22.20;78.00;;;;;;4954637;28;20027;-80
2023/07/30 03:46:14;;;;;;;4.57;4.18;;;22.40;78.20;;;;;;4969341;28;20086;-80
2023/07/30 03:48:40;;;;;;;3.83;3.53;;;22.60;78.50;;;;;;4969131;28;20145;-80
2023/07/30 03:51:07;;;;;;;3.90;3.50;;;22.90;78.60;;;;;;4954437;28;20507;-80
2023/07/30 03:53:33;;;;;;;4.13;3.50;;;23.10;78.10;;;;;;4974605;28;20173;-81
2023/07/30 03:55:58;;;;;;;4.45;3.78;;;23.40;78.10;;;;;;4973583;28;20553;-81
2023/07/30 03:58:24;;;;;;;6.10;3.85;;;23.80;77.90;;;;;;4973437;28;20034;-80
2023/07/30 04:00:50;;;;;;;5.50;4.45;;;24.30;77.10;;;;;;4972114;28;20494;-81
2023/07/30 04:03:15;;;;;;;4.00;3.60;;;24.80;76.20;;;;;;4988270;28;20030;-80
2023/07/30 04:05:41;;;;;;;4.90;3.70;;;25.50;74.90;;;;;;4988628;28;20518;-80
2023/07/30 04:08:07;;;;;;;5.05;3.83;;;26.30;73.20;;;;;;4972289;28;20125;-80
2023/07/30 04:10:32;;;;;;;4.47;3.50;;;27.30;71.30;;;;;;4988216;28;20122;-81
2023/07/30 04:12:58;;;;;;;5.03;3.80;;;28.30;69.40;;;;;;4988271;28;20127;-80
2023/07/30 04:15:24;;;;;;;4.82;3.50;;;29.30;67.40;;;;;;4972313;28;20051;-81
2023/07/30 04:17:50;;;;;;;3.97;3.35;;;30.30;65.20;;;;;;4987872;28;20069;-81
2023/07/30 04:20:15;;;;;;;4.85;3.55;;;31.20;63.50;;;;;;4973339;28;20545;-80
2023/07/30 04:22:41;;;;;;;5.03;3.63;;;32.10;61.30;;;;;;4978456;28;20050;-80
2023/07/30 04:25:08;;;;;;;4.93;3.67;;;32.90;59.80;;;;;;4974932;28;20093;-81
2023/07/30 04:27:33;;;;;;;4.50;3.80;;;33.70;58.10;;;;;;4992975;28;20390;-81
2023/07/30 04:29:59;;;;;;;4.40;3.65;;;34.40;57.00;;;;;;4992437;28;20026;-81
2023/07/30 04:32:25;;;;;;;4.93;3.65;;;35.10;55.90;;;;;;4974969;28;20030;-81
2023/07/30 04:34:50;;;;;;;4.03;3.38;;;35.60;55.00;;;;;;4975043;28;20031;-81
2023/07/30 04:37:16;;;;;;;3.40;3.10;;;36.00;54.10;;;;;;4992358;28;20023;-81
2023/07/30 04:39:41;;;;;;;4.65;3.63;;;36.50;53.40;;;;;;4975012;28;20023;-81
2023/07/30 04:42:07;;;;;;;4.80;3.15;;;37.10;52.60;;;;;;4974838;28;20112;-81
2023/07/30 04:44:33;;;;;;;3.42;3.08;;;37.50;51.90;;;;;;4992373;28;20034;-81
2023/07/30 04:46:58;;;;;;;4.07;3.33;;;38.00;51.10;;;;;;4974904;28;20104;-81
2023/07/30 04:49:24;;;;;;;4.60;3.28;;;38.50;50.40;;;;;;4978093;28;20035;-81
2023/07/30 04:51:50;;;;;;;3.70;3.10;;;38.80;49.70;;;;;;4996712;28;20026;-81
2023/07/30 04:54:15;;;;;;;3.42;3.05;;;39.20;49.10;;;;;;4978532;28;20089;-81
2023/07/30 04:56:41;;;;;;;3.63;2.90;;;39.40;48.60;;;;;;4996027;28;20034;-81
2023/07/30 04:59:07;;;;;;;3.65;3.25;;;39.60;48.40;;;;;;4978575;28;20034;-81
2023/07/30 05:01:33;;;;;;;3.47;3.17;;;39.80;48.00;;;;;;4978770;28;20381;-79
2023/07/30 05:03:58;;;;;;;3.78;3.42;;;40.10;47.60;;;;;;4978359;28;20034;-80
2023/07/30 05:06:24;;;;;;;4.03;3.47;;;40.30;47.20;;;;;;4978668;28;20450;-79
2023/07/30 05:08:49;;;;;;;4.00;3.40;;;40.40;46.70;;;;;;4978363;28;20057;-79
2023/07/30 05:11:15;;;;;;;4.70;3.60;;;40.30;46.50;;;;;;4978514;28;20026;-81
2023/07/30 05:13:41;;;;;;;3.80;3.30;;;40.00;46.30;;;;;;4995816;28;20486;-81
2023/07/30 05:16:06;;;;;;;4.25;3.30;;;39.60;46.40;;;;;;4995573;28;20034;-80
2023/07/30 05:18:32;;;;;;;4.28;3.60;;;38.90;46.50;;;;;;4995914;28;20072;-81
2023/07/30 05:20:58;;;;;;;4.70;3.70;;;38.10;46.90;;;;;;4978593;28;20038;-82
2023/07/30 05:23:24;;;;;;;5.03;3.58;;;37.20;47.60;;;;;;4978243;28;20078;-81
2023/07/30 05:25:49;;;;;;;4.22;3.67;;;36.40;48.40;;;;;;4978063;28;20513;-82
2023/07/30 05:28:15;;;;;;;4.07;3.50;;;36.10;48.90;;;;;;4978091;28;20120;-81
2023/07/30 05:30:41;;;;;;;4.38;3.60;;;36.10;48.80;;;;;;4978072;28;20027;-81
2023/07/30 05:33:07;;;;;;;4.00;3.22;;;36.30;48.40;;;;;;4978225;28;20030;-81
2023/07/30 05:35:32;;;;;;;3.97;3.42;;;36.40;47.70;;;;;;4977780;28;20026;-80
2023/07/30 05:37:58;;;;;;;5.20;3.83;;;36.40;47.40;;;;;;4977875;28;20057;-81
2023/07/30 05:40:24;;;;;;;4.70;3.90;;;36.20;47.70;;;;;;4995454;28;20019;-80
2023/07/30 05:42:49;;;;;;;4.50;3.72;;;35.70;47.90;;;;;;4977710;28;20030;-82
2023/07/30 05:45:15;;;;;;;4.25;3.50;;;35.10;48.20;;;;;;4977870;28;20109;-81
2023/07/30 05:47:41;;;;;;;5.18;4.13;;;34.50;48.70;;;;;;4977577;28;20034;-81
2023/07/30 05:50:07;;;;;;;4.60;3.42;;;33.90;49.40;;;;;;4995284;28;20027;-80
2023/07/30 05:52:33;;;;;;;3.92;3.50;;;33.40;50.00;;;;;;4993863;28;20022;-81
2023/07/30 05:54:59;;;;;;;4.60;3.80;;;32.80;50.80;;;;;;4995352;28;20463;-80
2023/07/30 05:57:25;;;;;;;4.40;3.60;;;32.40;51.10;;;;;;4977659;28;20375;-80
2023/07/30 05:59:51;;;;;;;5.75;3.95;;;31.90;51.70;;;;;;4976847;28;20027;-80
2023/07/30 06:02:17;;;;;;;4.30;3.63;;;31.60;52.90;;;;;;4995350;28;20022;-80
2023/07/30 06:04:43;;;;;;;4.57;3.63;;;31.30;52.60;;;;;;4994876;28;20101;-82
2023/07/30 06:07:08;;;;;;;4.90;4.07;;;30.90;53.10;;;;;;4977489;28;20034;-80
2023/07/30 06:09:34;;;;;;;5.72;3.60;;;30.60;53.50;;;;;;4977435;28;20117;-81
2023/07/30 06:12:00;;;;;;;4.18;3.78;;;30.40;54.10;;;;;;4995437;28;20034;-80
2023/07/30 06:14:26;;;;;;;4.82;4.00;;;30.10;55.40;;;;;;4978686;28;20026;-80
2023/07/30 06:16:53;;;;;;;5.00;3.78;;;29.90;55.10;;;;;;4996343;28;20030;-80
2023/07/30 06:19:19;;;;;;;4.18;3.65;;;29.70;55.50;;;;;;4995514;28;20026;-80
2023/07/30 06:21:45;;;;;;;4.72;3.65;;;29.50;55.90;;;;;;4994885;28;20037;-80
2023/07/30 06:24:10;;;;;;;5.38;3.83;;;29.30;56.20;;;;;;4977551;28;20057;-80
2023/07/30 06:26:36;;;;;;;4.63;4.18;;;29.20;56.60;;;;;;4994808;28;20089;-81
2023/07/30 06:29:02;;;;;;;4.82;4.13;;;29.00;56.80;;;;;;4977078;28;20100;-81
2023/07/30 06:31:28;;;;;;;7.03;5.15;;;28.80;57.30;;;;;;4994649;28;20113;-80
2023/07/30 06:33:54;;;;;;;6.78;5.03;;;28.70;57.60;;;;;;4977088;28;20517;-80
2023/07/30 06:36:19;;;;;;;6.40;5.15;;;28.50;57.90;;;;;;4976898;28;20386;-80
2023/07/30 06:38:45;;;;;;;8.07;5.93;;;28.40;58.30;;;;;;4977157;28;20145;-80
2023/07/30 06:41:10;;;;;;;6.90;5.75;;;28.30;58.70;;;;;;4974042;28;20027;-80
2023/07/30 06:43:36;;;;;;;5.65;4.90;;;28.20;59.10;;;;;;4974732;28;20479;-80
2023/07/30 06:46:02;;;;;;;6.90;5.80;;;28.10;59.40;;;;;;4973528;28;20165;-80
2023/07/30 06:48:28;;;;;;;7.53;5.35;;;28.00;59.50;;;;;;4974848;28;20038;-79
2023/07/30 06:50:53;;;;;;;8.25;5.82;;;27.90;59.80;;;;;;4973373;28;20034;-80
2023/07/30 06:53:19;;;;;;;7.53;5.57;;;27.80;60.20;;;;;;4973200;28;20084;-80
2023/07/30 06:55:45;;;;;;;8.68;6.97;;;27.70;60.40;;;;;;4974859;28;20023;-79
2023/07/30 06:58:11;;;;;;;13.95;9.85;;;27.60;61.00;;;;;;4957189;28;20037;-80
2023/07/30 07:00:37;;;;;;;15.60;10.48;;;27.60;61.20;;;;;;4973131;28;20026;-79
2023/07/30 07:03:03;;;;;;;16.48;12.10;;;27.50;61.50;;;;;;4973216;28;20023;-79
2023/07/30 07:05:29;;;;;;;20.63;13.52;;;27.40;61.70;;;;;;4974582;28;20094;-80
2023/07/30 07:07:55;;;;;;;23.70;14.68;;;27.40;62.10;;;;;;4973252;28;20026;-79
2023/07/30 07:10:21;;;;;;;20.60;14.02;;;27.30;62.40;;;;;;4974361;28;20026;-80
2023/07/30 07:12:47;;;;;;;17.73;12.02;;;27.30;62.60;;;;;;4971927;28;20034;-79
2023/07/30 07:15:13;;;;;;;14.88;10.02;;;27.30;63.00;;;;;;4973411;28;20089;-80
2023/07/30 07:17:39;;;;;;;16.70;11.20;;;27.20;63.20;;;;;;4972942;28;20395;-79
2023/07/30 07:20:06;;;;;;;13.32;10.18;;;27.20;63.50;;;;;;4972961;28;20034;-79
2023/07/30 07:22:32;;;;;;;15.73;11.05;;;27.10;63.70;;;;;;4972723;28;20113;-80
2023/07/30 07:24:58;;;;;;;12.45;9.43;;;27.10;64.00;;;;;;4973661;28;20041;-79
2023/07/30 07:27:24;;;;;;;13.90;9.80;;;27.10;64.20;;;;;;4973215;28;20026;-79
2023/07/30 07:29:51;;;;;;;13.60;9.60;;;27.10;64.70;;;;;;4971610;28;20033;-80
2023/07/30 07:32:17;;;;;;;12.68;9.15;;;27.00;64.90;;;;;;4955825;28;20035;-80
2023/07/30 07:34:48;;;;;;;13.90;9.45;;;27.00;65.20;;;;;;4955957;28;20035;-80
2023/07/30 07:37:18;;;;;;;13.00;8.63;;;27.00;65.50;;;;;;4955335;28;20574;-79
2023/07/30 07:39:45;;;;;;;13.18;9.10;;;26.90;65.70;;;;;;4956758;28;20552;-79
2023/07/30 07:42:13;;;;;;;13.27;8.55;;;26.90;66.40;;;;;;4956229;28;20490;-80
2023/07/30 07:44:39;;;;;;;10.18;8.10;;;26.90;66.10;;;;;;4955978;28;20384;-80
2023/07/30 07:47:05;;;;;;;17.42;10.70;;;26.90;66.10;;;;;;4972931;28;20030;-79
2023/07/30 07:49:30;;;;;;;19.75;11.63;;;26.90;66.10;;;;;;4972161;28;20511;-79
2023/07/30 07:51:56;;;;;;;17.13;10.00;;;26.80;66.40;;;;;;4972099;28;20042;-80
2023/07/30 07:54:22;;;;;;;13.32;9.23;;;26.80;66.70;;;;;;4956084;28;20027;-79
2023/07/30 07:56:47;;;;;;;12.10;8.52;;;26.80;66.90;;;;;;4972360;28;20030;-79
2023/07/30 07:59:13;;;;;;;14.02;8.15;;;26.80;66.60;;;;;;4972056;28;20027;-79
2023/07/30 08:01:38;;;;;;;12.98;7.72;;;26.80;66.20;;;;;;4973654;28;20535;-79
2023/07/30 08:04:04;;;;;;;15.25;9.07;;;26.80;65.90;;;;;;4973068;28;20018;-80
2023/07/30 08:06:32;;;;;;;10.57;7.53;;;26.90;65.70;;;;;;4971007;28;20027;-79
2023/07/30 08:08:57;;;;;;;7.97;6.28;;;26.80;65.40;;;;;;4955050;28;20027;-79
2023/07/30 08:11:23;;;;;;;10.65;7.30;;;26.90;65.20;;;;;;4955745;28;20031;-79
2023/07/30 08:13:49;;;;;;;10.73;7.05;;;26.90;65.00;;;;;;4971370;28;20093;-80
2023/07/30 08:16:14;;;;;;;11.70;8.00;;;26.90;65.00;;;;;;4971807;28;20030;-79
2023/07/30 08:18:40;;;;;;;10.07;7.20;;;26.90;65.60;;;;;;4971635;28;20027;-79
2023/07/30 08:21:06;;;;;;;11.00;6.45;;;26.90;64.80;;;;;;4972005;28;20022;-79
2023/07/30 08:23:32;;;;;;;9.05;6.40;;;26.90;65.10;;;;;;4973630;28;20182;-81
2023/07/30 08:25:57;;;;;;;8.68;6.32;;;26.90;65.00;;;;;;4975909;28;20395;-79
2023/07/30 08:28:23;;;;;;;6.70;5.15;;;26.90;64.60;;;;;;4976770;28;20046;-80
2023/07/30 08:30:48;;;;;;;9.02;6.03;;;26.90;64.30;;;;;;4976935;28;20027;-79
2023/07/30 08:33:14;;;;;;;6.78;5.53;;;27.00;64.40;;;;;;4975705;28;20038;-79
2023/07/30 08:35:40;;;;;;;8.00;6.82;;;26.90;64.30;;;;;;4976359;28;20041;-80
2023/07/30 08:38:05;;;;;;;6.97;5.95;;;26.90;64.40;;;;;;4975888;28;20027;-80
2023/07/30 08:40:31;;;;;;;11.32;5.55;;;26.90;64.20;;;;;;4977096;28;20114;-80
2023/07/30 08:42:57;;;;;;;10.82;7.07;;;26.80;64.00;;;;;;4975839;28;20038;-81
2023/07/30 08:45:23;;;;;;;10.85;7.65;;;26.80;64.00;;;;;;4977116;28;20018;-80
2023/07/30 08:47:49;;;;;;;12.18;7.72;;;26.80;63.80;;;;;;4976322;28;20379;-80
2023/07/30 08:50:15;;;;;;;9.52;7.85;;;26.70;64.00;;;;;;4975909;28;20030;-80
2023/07/30 08:52:42;;;;;;;9.40;7.32;;;26.70;64.30;;;;;;4975716;28;20085;-80
2023/07/30 08:55:08;;;;;;;11.40;8.40;;;26.70;64.30;;;;;;4958927;28;20406;-80
2023/07/30 08:57:34;;;;;;;10.20;8.30;;;26.60;64.30;;;;;;4959581;28;20027;-80
2023/07/30 09:00:08;;;;;;;10.85;7.70;;;26.60;64.70;;;;;;4976421;28;20029;-79
2023/07/30 09:02:39;;;;;;;9.73;8.00;;;26.50;64.70;;;;;;4959495;28;20142;-80
2023/07/30 09:05:06;;;;;;;9.27;7.03;;;26.50;64.80;;;;;;4977086;28;20023;-80
2023/07/30 09:07:32;;;;;;;8.43;7.03;;;26.40;64.70;;;;;;4959597;28;20027;-79
2023/07/30 09:09:58;;;;;;;7.60;6.70;;;26.40;64.70;;;;;;4959366;28;20050;-80
2023/07/30 09:12:34;;;;;;;10.05;6.90;;;26.40;65.00;;;;;;4975256;28;20030;-80
2023/07/30 09:15:02;;;;;;;6.85;5.80;;;26.40;64.80;;;;;;4959190;28;20048;-80
2023/07/30 09:17:27;;;;;;;7.43;6.45;;;26.30;65.10;;;;;;4976529;28;20178;-80
2023/07/30 09:19:53;;;;;;;10.00;6.10;;;26.30;64.80;;;;;;4971405;28;20053;-80
2023/07/30 09:22:33;;;;;;;6.68;5.43;;;26.20;64.60;;;;;;4990311;28;20031;-80
2023/07/30 09:25:02;;;;;;;7.15;5.78;;;26.20;64.80;;;;;;4975903;28;20403;-80
2023/07/30 09:27:29;;;;;;;8.00;6.22;;;26.20;64.90;;;;;;4990085;28;20126;-80
2023/07/30 09:29:58;;;;;;;5.53;4.93;;;26.10;65.00;;;;;;4975570;28;20510;-80
2023/07/30 09:32:29;;;;;;;5.63;4.88;;;26.10;65.00;;;;;;4991220;28;20026;-80
2023/07/30 09:34:55;;;;;;;6.28;4.80;;;26.10;65.10;;;;;;4990068;28;20053;-81
2023/07/30 09:37:21;;;;;;;5.68;5.07;;;26.10;65.10;;;;;;4975949;28;20034;-80
2023/07/30 09:39:49;;;;;;;7.78;5.50;;;26.10;64.80;;;;;;4974792;28;20027;-81
2023/07/30 09:42:15;;;;;;;6.32;5.22;;;26.00;64.30;;;;;;4990868;28;20027;-80
2023/07/30 09:44:41;;;;;;;6.78;5.32;;;26.00;65.00;;;;;;4991117;28;20042;-80
2023/07/30 09:47:10;;;;;;;6.65;4.80;;;26.00;65.20;;;;;;4991104;28;20437;-80
2023/07/30 09:49:39;;;;;;;6.60;5.10;;;26.00;65.40;;;;;;4976342;28;20030;-80
2023/07/30 09:52:05;;;;;;;5.05;4.35;;;25.90;65.50;;;;;;4990789;28;20411;-80
2023/07/30 09:54:32;;;;;;;6.35;4.78;;;26.00;65.80;;;;;;4990852;28;20023;-80
2023/07/30 09:56:58;;;;;;;5.57;4.97;;;25.90;65.50;;;;;;4990894;28;20031;-80
2023/07/30 09:59:24;;;;;;;6.32;5.15;;;25.90;65.80;;;;;;4990851;28;20030;-80
2023/07/30 10:01:53;;;;;;;5.70;4.38;;;25.90;66.00;;;;;;4990887;28;20113;-79
2023/07/30 10:04:20;;;;;;;4.88;4.05;;;25.90;66.00;;;;;;4974286;28;20023;-80
2023/07/30 10:07:01;;;;;;;5.18;4.22;;;25.90;66.10;;;;;;4990735;28;20043;-79
2023/07/30 10:09:32;;;;;;;6.45;5.40;;;25.90;65.90;;;;;;4989978;28;20094;-80
2023/07/30 10:12:00;;;;;;;6.22;5.00;;;25.90;66.10;;;;;;4990535;28;20121;-80
2023/07/30 10:14:26;;;;;;;5.55;4.95;;;25.90;65.90;;;;;;4990226;28;20047;-80
2023/07/30 10:16:58;;;;;;;5.53;4.90;;;25.80;65.90;;;;;;4974161;28;20170;-80
2023/07/30 10:19:25;;;;;;;4.93;4.35;;;25.90;66.60;;;;;;4974279;28;20025;-80
2023/07/30 10:21:51;;;;;;;5.88;4.80;;;25.80;67.00;;;;;;4990206;28;20114;-80
2023/07/30 10:24:17;;;;;;;6.78;4.25;;;25.80;66.70;;;;;;4975355;28;20579;-80
2023/07/30 10:26:43;;;;;;;4.15;3.75;;;25.90;67.00;;;;;;4975116;28;20050;-80
2023/07/30 10:29:19;;;;;;;5.43;3.97;;;25.90;67.20;;;;;;4990210;28;20034;-80
2023/07/30 10:31:55;;;;;;;4.68;4.20;;;25.90;67.60;;;;;;4975344;28;20133;-80
2023/07/30 10:34:21;;;;;;;4.50;4.05;;;25.90;67.70;;;;;;4989927;28;20039;-80
2023/07/30 10:36:55;;;;;;;4.55;4.07;;;25.80;67.40;;;;;;4975001;28;20039;-80
2023/07/30 10:39:30;;;;;;;4.88;4.13;;;25.90;67.70;;;;;;4973744;28;20058;-80
2023/07/30 10:41:58;;;;;;;4.20;3.80;;;25.80;67.20;;;;;;4973939;28;20046;-80
2023/07/30 10:44:29;;;;;;;5.38;4.38;;;25.80;67.10;;;;;;4974949;28;20029;-80
2023/07/30 10:46:55;;;;;;;5.00;3.85;;;25.90;67.30;;;;;;4974882;28;20034;-80
2023/07/30 10:49:22;;;;;;;3.55;3.25;;;25.80;67.60;;;;;;4974913;28;20038;-81
2023/07/30 10:51:48;;;;;;;4.18;3.75;;;25.80;67.50;;;;;;4989888;28;20398;-80
2023/07/30 10:54:15;;;;;;;4.65;4.05;;;25.80;67.40;;;;;;4974923;28;20058;-79
2023/07/30 10:56:42;;;;;;;4.50;3.75;;;25.80;67.40;;;;;;4974622;28;20046;-79
2023/07/30 10:59:08;;;;;;;4.40;3.72;;;25.80;67.30;;;;;;4989620;28;20058;-80
2023/07/30 11:01:42;;;;;;;5.90;4.43;;;25.80;67.50;;;;;;4989356;28;20023;-79
2023/07/30 11:04:18;;;;;;;4.43;3.92;;;25.80;66.90;;;;;;4989346;28;20066;-79
2023/07/30 11:06:49;;;;;;;4.30;3.63;;;25.80;67.20;;;;;;4989578;28;20033;-79
2023/07/30 11:09:20;;;;;;;4.07;3.67;;;25.80;67.30;;;;;;4974705;28;20019;-80
2023/07/30 11:11:46;;;;;;;4.28;3.88;;;25.80;67.20;;;;;;4973323;28;20031;-81
2023/07/30 11:14:19;;;;;;;4.13;3.72;;;25.70;67.50;;;;;;4974283;28;20045;-81
2023/07/30 11:16:59;;;;;;;4.40;4.00;;;25.70;67.70;;;;;;4989641;28;20078;-81
2023/07/30 11:19:26;;;;;;;5.30;4.10;;;25.80;67.60;;;;;;4974506;28;20026;-80
2023/07/30 11:21:59;;;;;;;3.97;3.58;;;25.80;67.60;;;;;;4989370;28;20019;-79
2023/07/30 11:24:35;;;;;;;3.58;3.28;;;25.80;67.70;;;;;;4988048;28;20046;-79
2023/07/30 11:27:01;;;;;;;3.42;3.10;;;25.80;67.30;;;;;;4987773;28;20136;-79
2023/07/30 11:29:27;;;;;;;3.13;2.78;;;25.80;67.30;;;;;;4972565;28;20031;-79
2023/07/30 11:31:57;;;;;;;3.65;3.03;;;25.90;67.10;;;;;;4972294;28;20030;-79
2023/07/30 11:34:23;;;;;;;4.03;3.55;;;26.00;67.20;;;;;;4985957;28;20312;-78
2023/07/30 11:36:49;;;;;;;5.40;4.43;;;26.00;66.90;;;;;;4970704;28;20111;-80
2023/07/30 11:39:15;;;;;;;4.65;4.10;;;26.00;66.70;;;;;;4973427;28;20019;-79
2023/07/30 11:41:41;;;;;;;5.78;4.60;;;26.10;66.10;;;;;;4974071;28;20030;-79
2023/07/30 11:44:07;;;;;;;4.20;3.80;;;26.10;66.30;;;;;;4972657;28;20387;-78
2023/07/30 11:46:35;;;;;;;3.90;3.50;;;26.10;66.30;;;;;;4988686;28;20030;-79
2023/07/30 11:49:13;;;;;;;3.60;3.30;;;26.10;66.20;;;;;;4972540;28;20023;-79
2023/07/30 11:51:39;;;;;;;4.18;3.78;;;26.20;66.40;;;;;;4988901;28;20030;-80
2023/07/30 11:54:05;;;;;;;4.78;3.80;;;26.20;66.70;;;;;;4988648;28;20030;-77
2023/07/30 11:56:33;;;;;;;3.50;3.20;;;26.20;66.60;;;;;;4973858;28;20023;-80
2023/07/30 11:59:00;;;;;;;3.20;2.90;;;26.30;66.60;;;;;;4987685;28;20023;-80
2023/07/30 12:01:28;;;;;;;3.40;3.10;;;26.30;66.30;;;;;;4972470;28;20091;-79
2023/07/30 12:03:55;;;;;;;3.30;3.00;;;26.40;66.10;;;;;;4972236;28;20022;-79
2023/07/30 12:06:21;;;;;;;3.10;2.80;;;26.40;65.80;;;;;;4988985;28;20027;-79
2023/07/30 12:08:49;;;;;;;3.00;2.80;;;26.50;66.00;;;;;;4988785;28;20462;-79
2023/07/30 12:11:19;;;;;;;3.28;2.97;;;26.50;65.80;;;;;;4988276;28;20054;-79
2023/07/30 12:13:46;;;;;;;3.35;3.05;;;26.60;65.90;;;;;;4988066;28;20034;-80
2023/07/30 12:16:12;;;;;;;4.10;3.17;;;26.60;65.60;;;;;;4987865;28;20031;-79
2023/07/30 12:18:39;;;;;;;4.85;3.85;;;26.70;66.00;;;;;;4988033;28;20497;-79
2023/07/30 12:21:07;;;;;;;4.90;3.20;;;26.70;65.60;;;;;;4971834;28;20454;-81
2023/07/30 12:23:33;;;;;;;3.40;3.10;;;26.70;65.70;;;;;;4973254;28;20049;-79
2023/07/30 12:25:59;;;;;;;3.67;2.88;;;26.70;65.40;;;;;;4986481;28;20034;-79
2023/07/30 12:28:25;;;;;;;3.80;3.20;;;26.80;65.00;;;;;;4986502;28;20043;-80
2023/07/30 12:30:51;;;;;;;4.43;3.65;;;26.80;65.00;;;;;;4971580;28;20097;-79
2023/07/30 12:33:16;;;;;;;4.32;3.63;;;26.80;64.90;;;;;;4972123;28;20493;-80
2023/07/30 12:35:42;;;;;;;3.70;3.40;;;26.80;65.30;;;;;;4971594;28;20026;-81
2023/07/30 12:38:08;;;;;;;4.25;3.50;;;26.80;65.40;;;;;;4970031;28;20070;-80
2023/07/30 12:40:34;;;;;;;7.03;4.13;;;26.80;65.50;;;;;;4971479;28;20023;-79
2023/07/30 12:43:03;;;;;;;3.85;3.45;;;26.80;65.50;;;;;;4971480;28;20019;-79